createdAt,value
2023-05-06T00:00:44.447Z,80.51
2023-05-06T00:01:47.187Z,80.71
2023-05-06T00:02:50.166Z,80.89
2023-05-06T00:03:53.596Z,80.69
2023-05-06T00:04:56.945Z,80.87
2023-05-06T00:05:59.660Z,81.05
2023-05-06T00:07:02.567Z,80.99
2023-05-06T00:08:06.255Z,80.78
2023-05-06T00:09:08.909Z,80.48
2023-05-06T00:10:11.972Z,80.37
2023-05-06T00:11:14.599Z,79.85
2023-05-06T00:12:18.496Z,79.74
2023-05-06T00:13:21.179Z,80.44
2023-05-06T00:14:24.050Z,80.10
2023-05-06T00:15:26.743Z,79.94
2023-05-06T00:16:29.567Z,80.07
2023-05-06T00:17:32.305Z,79.96
2023-05-06T00:18:35.290Z,79.51
2023-05-06T00:19:38.871Z,79.17
2023-05-06T00:20:42.146Z,78.92
2023-05-06T00:21:45.362Z,78.35
2023-05-06T00:22:48.203Z,77.93
2023-05-06T00:23:51.160Z,77.73
2023-05-06T00:24:53.850Z,78.37
2023-05-06T00:25:56.665Z,76.94
2023-05-06T00:26:59.348Z,76.83
2023-05-06T00:28:02.212Z,77.44
2023-05-06T00:29:04.884Z,77.26
2023-05-06T00:30:08.153Z,77.18
2023-05-06T00:31:10.940Z,76.81
2023-05-06T00:32:13.584Z,77.35
2023-05-06T00:33:16.399Z,76.28
2023-05-06T00:34:19.095Z,76.61
2023-05-06T00:35:21.806Z,77.04
2023-05-06T00:36:24.994Z,77.07
2023-05-06T00:37:27.676Z,76.99
2023-05-06T00:38:30.553Z,76.51
2023-05-06T00:39:34.636Z,76.60
2023-05-06T00:40:37.879Z,76.62
2023-05-06T00:41:40.979Z,77.03
2023-05-06T00:42:43.576Z,76.35
2023-05-06T00:43:46.276Z,76.71
2023-05-06T00:44:49.680Z,76.89
2023-05-06T00:45:52.460Z,76.66
2023-05-06T00:46:57.213Z,76.26
2023-05-06T00:48:00.292Z,76.66
2023-05-06T00:49:03.230Z,76.75
2023-05-06T00:50:07.244Z,76.82
2023-05-06T00:51:10.166Z,76.92
2023-05-06T00:52:13.806Z,76.67
2023-05-06T00:53:19.808Z,76.66
2023-05-06T00:54:25.401Z,76.82
2023-05-06T00:55:28.588Z,76.67
2023-05-06T00:56:31.574Z,76.77
2023-05-06T00:57:34.624Z,76.94
2023-05-06T00:58:38.248Z,76.50
2023-05-06T00:59:41.160Z,76.60
2023-05-06T01:00:44.793Z,76.87
2023-05-06T01:01:47.620Z,76.91
2023-05-06T01:02:50.470Z,77.34
2023-05-06T01:03:57.531Z,77.54
2023-05-06T01:05:01.111Z,77.67
2023-05-06T01:06:45.776Z,77.81
2023-05-06T01:08:04.036Z,77.74
2023-05-06T01:09:30.266Z,77.66
2023-05-06T01:10:40.885Z,77.47
2023-05-06T01:12:17.257Z,77.84
2023-05-06T01:13:39.455Z,78.00
2023-05-06T01:14:56.480Z,77.95
2023-05-06T01:16:01.482Z,78.26
2023-05-06T01:17:06.519Z,78.77
2023-05-06T01:18:11.884Z,78.97
2023-05-06T01:19:35.208Z,79.19
2023-05-06T01:20:40.225Z,79.24
2023-05-06T01:21:45.888Z,79.44
2023-05-06T01:22:50.390Z,79.57
2023-05-06T01:23:55.869Z,79.50
2023-05-06T01:24:58.618Z,79.80
2023-05-06T01:26:01.428Z,79.48
2023-05-06T01:27:04.440Z,79.43
2023-05-06T01:28:10.650Z,79.21
2023-05-06T01:29:13.356Z,78.69
2023-05-06T01:30:23.173Z,78.45
2023-05-06T01:31:52.574Z,78.61
2023-05-06T01:33:11.815Z,78.99
2023-05-06T01:34:23.707Z,79.17
2023-05-06T01:36:17.629Z,79.84
2023-05-06T01:37:29.061Z,79.69
2023-05-06T01:38:46.357Z,79.22
2023-05-06T01:39:50.331Z,79.55
2023-05-06T01:40:57.034Z,79.68
2023-05-06T01:42:02.816Z,79.33
2023-05-06T01:43:06.756Z,79.39
2023-05-06T01:44:11.114Z,79.74
2023-05-06T01:45:17.167Z,79.98
2023-05-06T01:46:22.139Z,79.83
2023-05-06T01:47:26.054Z,80.19
2023-05-06T01:48:32.478Z,80.66
2023-05-06T01:49:36.259Z,80.30
2023-05-06T01:50:39.247Z,80.17
2023-05-06T01:51:51.180Z,80.07
2023-05-06T01:53:01.471Z,80.23
2023-05-06T01:54:04.770Z,80.48
2023-05-06T01:55:08.027Z,79.78
2023-05-06T01:56:11.188Z,79.54
2023-05-06T01:57:14.072Z,80.19
2023-05-06T01:58:16.933Z,80.14
2023-05-06T01:59:20.288Z,80.04
2023-05-06T02:00:25.158Z,80.35
2023-05-06T02:01:28.156Z,80.48
2023-05-06T02:02:31.005Z,80.22
2023-05-06T02:03:33.852Z,79.98
2023-05-06T02:04:36.501Z,79.63
2023-05-06T02:05:39.399Z,79.81
2023-05-06T02:06:42.717Z,80.11
2023-05-06T02:07:45.610Z,79.90
2023-05-06T02:08:49.077Z,80.00
2023-05-06T02:09:51.683Z,80.14
2023-05-06T02:10:54.413Z,79.93
2023-05-06T02:11:57.140Z,80.24
2023-05-06T02:13:00.027Z,80.09
2023-05-06T02:14:02.711Z,79.78
2023-05-06T02:15:05.906Z,79.34
2023-05-06T02:16:11.974Z,79.11
2023-05-06T02:17:14.835Z,78.59
2023-05-06T02:18:17.566Z,78.88
2023-05-06T02:19:20.272Z,79.46
2023-05-06T02:20:23.619Z,79.58
2023-05-06T02:21:26.681Z,79.94
2023-05-06T02:22:29.635Z,80.38
2023-05-06T02:23:32.466Z,80.50
2023-05-06T02:24:35.191Z,80.69
2023-05-06T02:25:38.039Z,81.31
2023-05-06T02:26:40.761Z,80.89
2023-05-06T02:27:45.175Z,81.86
2023-05-06T02:28:47.936Z,81.40
2023-05-06T02:29:50.911Z,81.33
2023-05-06T02:30:57.671Z,81.59
2023-05-06T02:32:00.485Z,81.97
2023-05-06T02:33:03.577Z,82.39
2023-05-06T02:34:06.945Z,82.56
2023-05-06T02:35:10.292Z,82.85
2023-05-06T02:36:13.236Z,82.78
2023-05-06T02:37:16.034Z,82.83
2023-05-06T02:38:20.122Z,83.26
2023-05-06T02:39:22.979Z,83.12
2023-05-06T02:40:25.641Z,82.74
2023-05-06T02:41:28.450Z,83.43
2023-05-06T02:42:31.163Z,83.62
2023-05-06T02:43:34.112Z,83.71
2023-05-06T02:44:36.852Z,84.07
2023-05-06T02:45:39.601Z,83.62
2023-05-06T02:46:43.827Z,83.64
2023-05-06T02:47:46.660Z,83.58
2023-05-06T02:48:49.441Z,83.91
2023-05-06T02:49:52.579Z,83.75
2023-05-06T02:50:55.224Z,83.92
2023-05-06T02:51:58.290Z,84.22
2023-05-06T02:53:01.025Z,84.58
2023-05-06T02:54:03.760Z,84.37
2023-05-06T02:55:07.175Z,84.30
2023-05-06T02:56:09.957Z,84.74
2023-05-06T02:57:12.948Z,85.30
2023-05-06T02:58:15.658Z,85.08
2023-05-06T02:59:18.378Z,85.64
2023-05-06T03:00:21.211Z,86.30
2023-05-06T03:01:24.467Z,86.14
2023-05-06T03:02:27.271Z,86.07
2023-05-06T03:03:30.060Z,86.31
2023-05-06T03:04:33.009Z,86.54
2023-05-06T03:05:35.728Z,86.23
2023-05-06T03:06:38.430Z,87.30
2023-05-06T03:07:41.527Z,87.48
2023-05-06T03:08:44.276Z,87.83
2023-05-06T03:09:47.196Z,87.48
2023-05-06T03:10:51.011Z,87.85
2023-05-06T03:11:53.638Z,87.65
2023-05-06T03:12:56.297Z,87.94
2023-05-06T03:13:58.906Z,88.21
2023-05-06T03:15:01.695Z,88.41
2023-05-06T03:16:04.668Z,89.14
2023-05-06T03:17:07.338Z,89.04
2023-05-06T03:18:10.259Z,88.80
2023-05-06T03:19:13.210Z,88.30
2023-05-06T03:20:16.364Z,88.19
2023-05-06T03:21:19.130Z,87.77
2023-05-06T03:22:22.608Z,87.89
2023-05-06T03:23:25.287Z,88.11
2023-05-06T03:24:27.989Z,88.24
2023-05-06T03:25:30.657Z,88.26
2023-05-06T03:26:33.482Z,88.90
2023-05-06T03:27:36.366Z,88.76
2023-05-06T03:28:39.249Z,88.52
2023-05-06T03:29:41.959Z,87.91
2023-05-06T03:30:44.773Z,88.16
2023-05-06T03:31:50.279Z,88.20
2023-05-06T03:32:53.337Z,88.41
2023-05-06T03:33:56.122Z,88.65
2023-05-06T03:34:58.865Z,88.57
2023-05-06T03:36:01.488Z,88.65
2023-05-06T03:37:04.299Z,88.08
2023-05-06T03:38:07.263Z,87.86
2023-05-06T03:39:10.432Z,87.89
2023-05-06T03:40:14.095Z,87.58
2023-05-06T03:41:18.213Z,87.10
2023-05-06T03:42:20.905Z,86.93
2023-05-06T03:43:24.093Z,86.77
2023-05-06T03:44:26.780Z,86.86
2023-05-06T03:45:29.494Z,86.96
2023-05-06T03:46:32.955Z,87.42
2023-05-06T03:47:35.738Z,87.44
2023-05-06T03:48:38.612Z,88.10
2023-05-06T03:49:41.269Z,88.29
2023-05-06T03:50:44.243Z,87.90
2023-05-06T03:51:47.429Z,88.59
2023-05-06T03:52:50.195Z,88.50
2023-05-06T03:53:54.750Z,87.45
2023-05-06T03:54:57.660Z,87.57
2023-05-06T03:56:01.838Z,87.35
2023-05-06T03:57:05.538Z,87.17
2023-05-06T03:58:08.464Z,87.44
2023-05-06T03:59:11.290Z,87.72
2023-05-06T04:00:14.652Z,87.58
2023-05-06T04:01:18.364Z,87.66
2023-05-06T04:02:21.082Z,88.01
2023-05-06T04:03:23.745Z,87.78
2023-05-06T04:04:27.482Z,87.98
2023-05-06T04:05:30.123Z,87.75
2023-05-06T04:06:32.916Z,88.58
2023-05-06T04:07:35.740Z,88.31
2023-05-06T04:08:38.783Z,88.53
2023-05-06T04:09:41.585Z,88.86
2023-05-06T04:10:44.747Z,88.56
2023-05-06T04:11:47.470Z,88.52
2023-05-06T04:12:50.355Z,88.75
2023-05-06T04:13:53.010Z,88.82
2023-05-06T04:14:55.588Z,89.74
2023-05-06T04:15:58.612Z,90.18
2023-05-06T04:17:01.488Z,89.96
2023-05-06T04:18:07.768Z,89.77
2023-05-06T04:19:10.878Z,89.86
2023-05-06T04:20:14.535Z,89.90
2023-05-06T04:21:18.512Z,89.48
2023-05-06T04:22:21.595Z,89.71
2023-05-06T04:23:24.206Z,89.70
2023-05-06T04:24:28.892Z,89.68
2023-05-06T04:25:31.443Z,89.23
2023-05-06T04:26:34.244Z,89.10
2023-05-06T04:27:36.921Z,89.15
2023-05-06T04:28:39.785Z,88.20
2023-05-06T04:29:43.017Z,87.79
2023-05-06T04:30:47.010Z,87.94
2023-05-06T04:31:49.959Z,88.36
2023-05-06T04:32:52.770Z,88.36
2023-05-06T04:33:55.604Z,88.17
2023-05-06T04:34:58.240Z,88.02
2023-05-06T04:36:01.192Z,87.79
2023-05-06T04:37:03.947Z,87.79
2023-05-06T04:38:07.002Z,87.70
2023-05-06T04:39:10.674Z,87.31
2023-05-06T04:40:14.095Z,86.83
2023-05-06T04:41:17.143Z,86.78
2023-05-06T04:42:20.018Z,87.53
2023-05-06T04:43:23.488Z,87.54
2023-05-06T04:44:26.210Z,88.25
2023-05-06T04:45:29.987Z,88.37
2023-05-06T04:46:34.286Z,88.65
2023-05-06T04:47:37.429Z,88.54
2023-05-06T04:48:40.182Z,88.33
2023-05-06T04:49:42.987Z,88.37
2023-05-06T04:50:46.001Z,88.22
2023-05-06T04:51:48.796Z,87.98
2023-05-06T04:52:51.483Z,88.12
2023-05-06T04:53:54.148Z,88.14
2023-05-06T04:54:56.757Z,88.03
2023-05-06T04:55:59.424Z,88.44
2023-05-06T04:57:03.411Z,88.43
2023-05-06T04:58:06.253Z,88.08
2023-05-06T04:59:08.991Z,88.11
2023-05-06T05:00:12.264Z,90.73
2023-05-06T05:01:15.303Z,91.63
2023-05-06T05:02:17.998Z,90.49
2023-05-06T05:03:20.656Z,90.14
2023-05-06T05:04:23.511Z,89.75
2023-05-06T05:05:27.952Z,90.09
2023-05-06T05:06:32.141Z,90.70
2023-05-06T05:07:35.028Z,90.65
2023-05-06T05:08:37.732Z,90.12
2023-05-06T05:09:40.470Z,90.49
2023-05-06T05:10:46.246Z,90.06
2023-05-06T05:11:48.909Z,89.37
2023-05-06T05:12:51.727Z,89.04
2023-05-06T05:13:56.478Z,89.00
2023-05-06T05:14:59.902Z,88.22
2023-05-06T05:16:02.670Z,90.09
2023-05-06T05:17:05.776Z,89.35
2023-05-06T05:18:09.103Z,88.64
2023-05-06T05:19:11.882Z,87.64
2023-05-06T05:20:14.620Z,88.76
2023-05-06T05:21:17.281Z,88.42
2023-05-06T05:22:20.198Z,87.45
2023-05-06T05:23:22.908Z,87.08
2023-05-06T05:24:25.524Z,86.06
2023-05-06T05:25:28.190Z,85.92
2023-05-06T05:26:31.166Z,86.09
2023-05-06T05:27:33.981Z,86.12
2023-05-06T05:28:36.729Z,86.10
2023-05-06T05:29:39.420Z,85.48
2023-05-06T05:30:42.012Z,87.00
2023-05-06T05:31:44.920Z,87.21
2023-05-06T05:32:47.845Z,87.46
2023-05-06T05:33:50.953Z,86.45
2023-05-06T05:34:53.607Z,86.03
2023-05-06T05:35:56.357Z,85.88
2023-05-06T05:36:59.210Z,85.02
2023-05-06T05:38:01.994Z,84.71
2023-05-06T05:39:05.036Z,82.10
2023-05-06T05:40:08.441Z,81.24
2023-05-06T05:41:11.371Z,79.35
2023-05-06T05:42:14.743Z,79.07
2023-05-06T05:43:17.545Z,78.43
2023-05-06T05:44:20.365Z,77.94
2023-05-06T05:45:23.064Z,78.43
2023-05-06T05:46:25.741Z,79.26
2023-05-06T05:47:28.390Z,77.25
2023-05-06T05:48:33.135Z,76.75
2023-05-06T05:49:36.322Z,73.99
2023-05-06T05:50:38.905Z,74.56
2023-05-06T05:51:42.025Z,74.36
2023-05-06T05:52:44.735Z,72.28
2023-05-06T05:53:47.535Z,72.53
2023-05-06T05:54:50.286Z,71.97
2023-05-06T05:55:53.255Z,72.40
2023-05-06T05:56:58.258Z,71.99
2023-05-06T05:58:00.928Z,72.13
2023-05-06T05:59:03.808Z,72.18
2023-05-06T06:00:07.219Z,71.62
2023-05-06T06:01:10.396Z,71.63
2023-05-06T06:02:13.325Z,70.70
2023-05-06T06:03:18.563Z,70.75
2023-05-06T06:04:21.435Z,71.08
2023-05-06T06:05:24.072Z,72.51
2023-05-06T06:06:26.901Z,71.56
2023-05-06T06:07:29.654Z,69.33
2023-05-06T06:08:33.359Z,70.52
2023-05-06T06:09:36.199Z,70.36
2023-05-06T06:10:38.862Z,70.53
2023-05-06T06:11:41.636Z,70.64
2023-05-06T06:12:44.781Z,70.82
2023-05-06T06:13:47.600Z,71.79
2023-05-06T06:14:51.001Z,70.16
2023-05-06T06:15:53.785Z,68.57
2023-05-06T06:16:56.659Z,69.20
2023-05-06T06:17:59.578Z,69.54
2023-05-06T06:19:02.532Z,68.81
2023-05-06T06:20:06.126Z,69.01
2023-05-06T06:21:08.981Z,69.82
2023-05-06T06:22:12.725Z,69.68
2023-05-06T06:23:15.583Z,70.22
2023-05-06T06:24:18.366Z,69.52
2023-05-06T06:25:21.745Z,71.12
2023-05-06T06:26:24.596Z,69.01
2023-05-06T06:27:27.495Z,68.75
2023-05-06T06:28:31.518Z,67.80
2023-05-06T06:29:34.231Z,67.40
2023-05-06T06:30:37.666Z,67.51
2023-05-06T06:31:40.786Z,67.74
2023-05-06T06:32:51.807Z,67.23
2023-05-06T06:33:54.442Z,66.63
2023-05-06T06:34:57.015Z,66.01
2023-05-06T06:35:59.890Z,65.54
2023-05-06T06:37:02.511Z,64.73
2023-05-06T06:38:05.191Z,65.83
2023-05-06T06:39:08.672Z,65.10
2023-05-06T06:40:12.024Z,64.94
2023-05-06T06:41:14.745Z,64.19
2023-05-06T06:42:17.900Z,64.32
2023-05-06T06:43:20.989Z,62.02
2023-05-06T06:44:23.646Z,61.93
2023-05-06T06:45:26.331Z,62.60
2023-05-06T06:46:28.932Z,56.50
2023-05-06T06:47:32.016Z,55.51
2023-05-06T06:48:34.804Z,54.50
2023-05-06T06:49:38.751Z,54.95
2023-05-06T06:50:41.393Z,55.73
2023-05-06T06:51:44.207Z,55.08
2023-05-06T06:52:46.867Z,55.32
2023-05-06T06:53:51.674Z,55.10
2023-05-06T06:54:54.391Z,54.02
2023-05-06T06:55:57.117Z,53.79
2023-05-06T06:56:59.769Z,53.18
2023-05-06T06:58:02.862Z,53.00
2023-05-06T06:59:05.611Z,52.59
2023-05-06T07:00:09.260Z,52.31
2023-05-06T07:01:12.010Z,52.09
2023-05-06T07:02:14.755Z,52.94
2023-05-06T07:03:19.695Z,52.58
2023-05-06T07:04:22.744Z,52.19
2023-05-06T07:05:27.098Z,53.38
2023-05-06T07:06:29.770Z,53.05
2023-05-06T07:07:32.776Z,53.83
2023-05-06T07:08:35.582Z,54.42
2023-05-06T07:09:40.234Z,56.99
2023-05-06T07:10:43.070Z,54.45
2023-05-06T07:11:46.022Z,54.93
2023-05-06T07:12:48.858Z,55.98
2023-05-06T07:13:51.871Z,55.90
2023-05-06T07:14:54.842Z,51.70
2023-05-06T07:15:59.203Z,51.86
2023-05-06T07:17:02.138Z,52.29
2023-05-06T07:18:05.094Z,52.69
2023-05-06T07:19:08.008Z,51.83
2023-05-06T07:20:11.142Z,51.03
2023-05-06T07:21:14.021Z,51.82
2023-05-06T07:22:16.776Z,51.75
2023-05-06T07:23:19.450Z,51.22
2023-05-06T07:24:22.454Z,51.82
2023-05-06T07:25:25.751Z,51.94
2023-05-06T07:26:28.487Z,52.17
2023-05-06T07:27:31.195Z,53.85
2023-05-06T07:28:37.693Z,56.46
2023-05-06T07:29:40.467Z,54.93
2023-05-06T07:30:43.423Z,54.07
2023-05-06T07:31:46.195Z,53.38
2023-05-06T07:32:49.149Z,52.83
2023-05-06T07:33:51.983Z,52.56
2023-05-06T07:34:54.752Z,51.08
2023-05-06T07:35:57.430Z,50.79
2023-05-06T07:37:00.401Z,50.38
2023-05-06T07:38:03.265Z,51.10
2023-05-06T07:39:07.052Z,51.00
2023-05-06T07:40:10.051Z,51.28
2023-05-06T07:41:13.240Z,51.55
2023-05-06T07:42:15.855Z,51.46
2023-05-06T07:43:19.002Z,51.92
2023-05-06T07:44:22.087Z,50.90
2023-05-06T07:45:25.380Z,52.04
2023-05-06T07:46:28.575Z,53.55
2023-05-06T07:47:32.889Z,52.38
2023-05-06T07:48:35.767Z,51.98
2023-05-06T07:49:38.542Z,51.76
2023-05-06T07:50:41.236Z,51.94
2023-05-06T07:51:44.583Z,50.23
2023-05-06T07:52:47.341Z,50.93
2023-05-06T07:53:49.968Z,50.64
2023-05-06T07:54:53.418Z,51.89
2023-05-06T07:56:02.348Z,50.58
2023-05-06T07:57:05.592Z,50.16
2023-05-06T07:58:08.253Z,52.17
2023-05-06T07:59:11.932Z,51.72
2023-05-06T08:00:15.013Z,50.43
2023-05-06T08:01:17.892Z,53.50
2023-05-06T08:02:20.852Z,50.02
2023-05-06T08:03:23.918Z,48.90
2023-05-06T08:04:27.003Z,48.70
2023-05-06T08:05:29.921Z,48.20
2023-05-06T08:06:32.567Z,51.02
2023-05-06T08:07:35.215Z,50.13
2023-05-06T08:08:37.934Z,49.98
2023-05-06T08:09:40.714Z,50.62
2023-05-06T08:10:46.622Z,50.21
2023-05-06T08:11:50.832Z,47.36
2023-05-06T08:12:53.602Z,47.19
2023-05-06T08:13:56.455Z,46.83
2023-05-06T08:14:59.210Z,46.45
2023-05-06T08:16:02.640Z,46.97
2023-05-06T08:17:05.817Z,48.38
2023-05-06T08:18:20.862Z,49.80
2023-05-06T08:19:24.843Z,49.69
2023-05-06T08:20:27.731Z,49.05
2023-05-06T08:21:30.977Z,49.44
2023-05-06T08:22:33.600Z,49.08
2023-05-06T08:23:36.316Z,48.87
2023-05-06T08:24:38.863Z,48.79
2023-05-06T08:25:41.445Z,49.20
2023-05-06T08:26:44.555Z,48.96
2023-05-06T08:27:47.364Z,48.33
2023-05-06T08:28:50.488Z,48.53
2023-05-06T08:30:55.700Z,46.92
2023-05-06T08:31:58.512Z,47.42
2023-05-06T08:33:02.164Z,46.36
2023-05-06T08:34:04.886Z,44.50
2023-05-06T08:35:07.986Z,45.86
2023-05-06T08:36:10.820Z,46.30
2023-05-06T08:37:13.648Z,46.48
2023-05-06T08:38:16.366Z,47.23
2023-05-06T08:39:19.316Z,47.03
2023-05-06T08:40:24.096Z,45.24
2023-05-06T08:41:29.028Z,45.20
2023-05-06T08:42:32.956Z,47.04
2023-05-06T08:43:42.393Z,45.45
2023-05-06T08:44:46.078Z,44.28
2023-05-06T08:45:49.796Z,45.14
2023-05-06T08:46:52.981Z,43.96
2023-05-06T08:47:55.868Z,44.01
2023-05-06T08:48:59.777Z,44.12
2023-05-06T08:50:02.970Z,42.94
2023-05-06T08:51:07.126Z,44.15
2023-05-06T08:52:10.224Z,43.70
2023-05-06T08:53:13.992Z,42.47
2023-05-06T08:54:18.163Z,42.87
2023-05-06T08:55:22.611Z,42.68
2023-05-06T08:56:30.196Z,44.33
2023-05-06T08:57:34.240Z,45.66
2023-05-06T08:58:38.872Z,45.16
2023-05-06T08:59:42.781Z,44.21
2023-05-06T09:00:46.714Z,43.74
2023-05-06T09:01:49.489Z,43.41
2023-05-06T09:02:52.187Z,41.86
2023-05-06T09:03:58.230Z,43.76
2023-05-06T09:05:01.703Z,42.52
2023-05-06T09:06:04.958Z,42.33
2023-05-06T09:07:08.551Z,41.56
2023-05-06T09:08:11.871Z,41.09
2023-05-06T09:09:15.132Z,42.23
2023-05-06T09:10:19.181Z,42.57
2023-05-06T09:11:29.836Z,43.88
2023-05-06T09:12:32.827Z,42.17
2023-05-06T09:13:35.548Z,42.01
2023-05-06T09:14:38.356Z,40.75
2023-05-06T09:15:47.548Z,40.60
2023-05-06T09:16:52.612Z,40.29
2023-05-06T09:17:56.061Z,39.97
2023-05-06T09:18:59.376Z,39.98
2023-05-06T09:20:02.317Z,39.42
2023-05-06T09:21:05.219Z,40.03
2023-05-06T09:22:08.660Z,39.88
2023-05-06T09:23:13.185Z,39.48
2023-05-06T09:24:17.168Z,41.51
2023-05-06T09:25:20.896Z,39.84
2023-05-06T09:26:23.841Z,39.14
2023-05-06T09:27:29.952Z,39.03
2023-05-06T09:28:33.586Z,39.47
2023-05-06T09:29:36.290Z,37.54
2023-05-06T09:30:44.316Z,38.77
2023-05-06T09:31:48.570Z,37.41
2023-05-06T09:32:53.468Z,39.88
2023-05-06T09:33:58.226Z,39.11
2023-05-06T09:35:01.818Z,40.00
2023-05-06T09:36:05.077Z,40.62
2023-05-06T09:37:07.713Z,41.56
2023-05-06T09:38:10.784Z,40.96
2023-05-06T09:39:13.536Z,44.04
2023-05-06T09:40:16.375Z,44.96
2023-05-06T09:41:21.372Z,43.58
2023-05-06T09:42:26.371Z,42.42
2023-05-06T09:43:29.335Z,41.46
2023-05-06T09:44:32.888Z,41.42
2023-05-06T09:45:36.437Z,42.48
2023-05-06T09:46:39.344Z,40.92
2023-05-06T09:47:42.566Z,41.48
2023-05-06T09:48:47.031Z,41.68
2023-05-06T09:49:49.824Z,42.14
2023-05-06T09:50:53.615Z,42.55
2023-05-06T09:51:57.866Z,41.05
2023-05-06T09:53:01.577Z,39.24
2023-05-06T09:54:05.073Z,38.64
2023-05-06T09:55:09.456Z,37.69
2023-05-06T09:56:14.119Z,36.92
2023-05-06T09:57:18.513Z,35.19
2023-05-06T09:58:21.774Z,35.67
2023-05-06T09:59:25.962Z,35.21
2023-05-06T10:00:30.159Z,35.72
2023-05-06T10:01:37.252Z,35.14
2023-05-06T10:02:41.983Z,35.10
2023-05-06T10:03:46.461Z,33.25
2023-05-06T10:04:50.313Z,34.03
2023-05-06T10:05:54.637Z,35.42
2023-05-06T10:07:01.032Z,36.26
2023-05-06T10:08:04.571Z,36.31
2023-05-06T10:09:08.608Z,38.15
2023-05-06T10:10:12.326Z,39.58
2023-05-06T10:11:16.022Z,40.40
2023-05-06T10:12:20.348Z,41.47
2023-05-06T10:13:27.109Z,41.35
2023-05-06T10:14:29.876Z,41.29
2023-05-06T10:15:33.182Z,43.35
2023-05-06T10:16:36.835Z,42.59
2023-05-06T10:17:41.352Z,42.28
2023-05-06T10:18:45.992Z,42.78
2023-05-06T10:19:52.659Z,42.60
2023-05-06T10:20:56.342Z,43.72
2023-05-06T10:22:22.316Z,46.04
2023-05-06T10:23:35.627Z,45.59
2023-05-06T10:24:52.192Z,44.38
2023-05-06T10:25:57.667Z,43.91
2023-05-06T10:27:06.014Z,44.86
2023-05-06T10:28:14.239Z,44.41
2023-05-06T10:29:26.970Z,45.32
2023-05-06T10:30:33.422Z,45.83
2023-05-06T10:31:49.604Z,44.38
2023-05-06T10:32:54.520Z,46.04
2023-05-06T10:34:01.279Z,45.30
2023-05-06T10:35:44.497Z,45.33
2023-05-06T10:36:51.039Z,45.19
2023-05-06T10:37:55.274Z,45.73
2023-05-06T10:39:03.750Z,46.41
2023-05-06T10:40:10.152Z,44.20
2023-05-06T10:41:14.309Z,42.97
2023-05-06T10:42:18.865Z,42.91
2023-05-06T10:43:31.476Z,43.21
2023-05-06T10:44:59.840Z,42.56
2023-05-06T10:46:09.615Z,42.26
2023-05-06T10:47:12.207Z,41.58
2023-05-06T10:48:15.000Z,42.08
2023-05-06T10:49:20.090Z,41.86
2023-05-06T10:50:25.300Z,39.82
2023-05-06T10:51:29.297Z,39.05
2023-05-06T10:52:45.616Z,42.17
2023-05-06T10:54:07.155Z,39.68
2023-05-06T10:55:29.982Z,40.67
2023-05-06T10:56:35.126Z,39.59
2023-05-06T10:57:41.666Z,40.62
2023-05-06T10:58:48.166Z,41.72
2023-05-06T10:59:50.946Z,39.59
2023-05-06T11:00:55.732Z,39.04
2023-05-06T11:02:05.032Z,38.98
2023-05-06T11:03:19.006Z,39.16
2023-05-06T11:04:25.970Z,40.94
2023-05-06T11:05:29.045Z,38.88
2023-05-06T11:06:34.343Z,36.84
2023-05-06T11:07:37.282Z,37.93
2023-05-06T11:08:40.106Z,38.74
2023-05-06T11:10:01.302Z,37.85
2023-05-06T11:11:42.427Z,37.99
2023-05-06T11:12:49.630Z,37.93
2023-05-06T11:13:53.533Z,37.42
2023-05-06T11:15:43.903Z,38.01
2023-05-06T11:16:48.750Z,38.14
2023-05-06T11:17:53.453Z,37.87
2023-05-06T11:18:56.476Z,37.45
2023-05-06T11:20:18.886Z,38.72
2023-05-06T11:21:21.475Z,41.64
2023-05-06T11:22:40.907Z,38.82
2023-05-06T11:23:49.690Z,38.16
2023-05-06T11:24:52.475Z,38.46
2023-05-06T11:25:58.009Z,39.36
2023-05-06T11:27:00.868Z,39.62
2023-05-06T11:28:16.664Z,42.56
2023-05-06T11:29:19.968Z,41.79
2023-05-06T11:30:22.660Z,40.11
2023-05-06T11:31:26.569Z,40.50
2023-05-06T11:32:30.078Z,40.58
2023-05-06T11:33:34.243Z,40.87
2023-05-06T11:34:38.566Z,41.44
2023-05-06T11:35:41.428Z,40.84
2023-05-06T11:36:49.685Z,41.20
2023-05-06T11:37:52.841Z,41.76
2023-05-06T11:38:59.820Z,41.95
2023-05-06T11:40:02.512Z,41.24
2023-05-06T11:41:05.687Z,40.64
2023-05-06T11:42:09.277Z,41.51
2023-05-06T11:43:16.557Z,42.06
2023-05-06T11:44:38.851Z,40.88
2023-05-06T11:45:45.615Z,41.37
2023-05-06T11:46:48.489Z,42.55
2023-05-06T11:47:54.891Z,43.68
2023-05-06T11:48:57.906Z,42.35
2023-05-06T11:50:07.956Z,44.00
2023-05-06T11:51:11.027Z,42.21
2023-05-06T11:52:13.790Z,41.88
2023-05-06T11:53:23.823Z,42.82
2023-05-06T11:54:27.603Z,43.30
2023-05-06T11:55:30.393Z,43.37
2023-05-06T11:56:50.387Z,44.91
2023-05-06T11:57:53.701Z,43.97
2023-05-06T11:58:57.033Z,44.54
2023-05-06T11:59:59.801Z,43.70
2023-05-06T12:01:04.361Z,42.50
2023-05-06T12:02:13.161Z,43.92
2023-05-06T12:03:16.226Z,43.04
2023-05-06T12:04:18.992Z,44.98
2023-05-06T12:05:24.120Z,44.08
2023-05-06T12:06:35.353Z,44.10
2023-05-06T12:07:38.723Z,43.87
2023-05-06T12:08:41.726Z,44.45
2023-05-06T12:09:50.513Z,46.08
2023-05-06T12:10:56.137Z,45.85
2023-05-06T12:11:59.096Z,45.45
2023-05-06T12:13:02.685Z,45.90
2023-05-06T12:14:07.540Z,46.92
2023-05-06T12:15:11.844Z,45.58
2023-05-06T12:16:15.941Z,45.98
2023-05-06T12:17:19.387Z,46.47
2023-05-06T12:18:23.429Z,47.99
2023-05-06T12:19:26.762Z,46.19
2023-05-06T12:20:29.638Z,47.62
2023-05-06T12:21:33.288Z,46.77
2023-05-06T12:22:37.159Z,47.67
2023-05-06T12:23:52.579Z,47.45
2023-05-06T12:24:55.337Z,47.56
2023-05-06T12:26:06.356Z,50.02
2023-05-06T12:27:09.231Z,48.41
2023-05-06T12:28:19.232Z,46.93
2023-05-06T12:29:22.407Z,46.60
2023-05-06T12:30:32.494Z,47.23
2023-05-06T12:31:35.360Z,46.89
2023-05-06T12:32:57.370Z,47.18
2023-05-06T12:34:01.301Z,49.27
2023-05-06T12:35:07.656Z,47.24
2023-05-06T12:36:10.905Z,46.57
2023-05-06T12:37:27.878Z,47.56
2023-05-06T12:38:32.659Z,45.75
2023-05-06T12:39:39.437Z,46.76
2023-05-06T12:40:43.751Z,44.91
2023-05-06T12:41:47.037Z,45.92
2023-05-06T12:42:55.855Z,44.79
2023-05-06T12:43:58.647Z,46.35
2023-05-06T12:45:16.534Z,45.07
2023-05-06T12:46:21.682Z,45.70
2023-05-06T12:47:26.124Z,45.62
2023-05-06T12:48:29.064Z,45.98
2023-05-06T12:49:52.945Z,44.55
2023-05-06T12:50:55.570Z,44.65
2023-05-06T12:52:09.942Z,46.74
2023-05-06T12:53:13.497Z,43.63
2023-05-06T12:54:32.240Z,43.91
2023-05-06T12:55:37.442Z,44.48
2023-05-06T12:56:40.123Z,44.99
2023-05-06T12:57:42.758Z,46.58
2023-05-06T12:58:59.180Z,46.65
2023-05-06T13:00:03.131Z,46.10
2023-05-06T13:01:07.896Z,47.95
2023-05-06T13:02:10.691Z,47.40
2023-05-06T13:03:14.186Z,46.37
2023-05-06T13:04:16.849Z,45.80
2023-05-06T13:05:19.484Z,47.13
2023-05-06T13:06:22.545Z,46.65
2023-05-06T13:07:25.484Z,45.36
2023-05-06T13:08:29.540Z,45.25
2023-05-06T13:09:32.550Z,45.99
2023-05-06T13:10:35.279Z,46.91
2023-05-06T13:11:38.239Z,47.16
2023-05-06T13:12:40.945Z,47.78
2023-05-06T13:13:43.853Z,45.79
2023-05-06T13:14:46.509Z,46.29
2023-05-06T13:15:49.492Z,46.81
2023-05-06T13:16:53.535Z,46.30
2023-05-06T13:17:57.476Z,46.32
2023-05-06T13:19:00.390Z,46.06
2023-05-06T13:20:05.509Z,46.88
2023-05-06T13:21:08.530Z,47.26
2023-05-06T13:22:11.249Z,47.97
2023-05-06T13:23:14.081Z,47.93
2023-05-06T13:24:17.237Z,48.05
2023-05-06T13:25:19.970Z,50.02
2023-05-06T13:26:22.640Z,49.81
2023-05-06T13:27:25.580Z,48.78
2023-05-06T13:28:28.267Z,49.28
2023-05-06T13:29:32.065Z,51.08
2023-05-06T13:30:34.829Z,53.09
2023-05-06T13:31:37.638Z,54.50
2023-05-06T13:32:40.848Z,54.39
2023-05-06T13:33:43.530Z,54.50
2023-05-06T13:34:46.838Z,55.32
2023-05-06T13:35:49.495Z,56.22
2023-05-06T13:36:54.956Z,56.66
2023-05-06T13:37:57.957Z,56.60
2023-05-06T13:39:00.911Z,56.96
2023-05-06T13:40:04.998Z,56.50
2023-05-06T13:41:08.871Z,56.25
2023-05-06T13:42:14.126Z,56.50
2023-05-06T13:43:17.233Z,57.42
2023-05-06T13:44:20.972Z,56.96
2023-05-06T13:45:23.992Z,56.34
2023-05-06T13:46:29.954Z,57.29
2023-05-06T13:47:32.913Z,57.60
2023-05-06T13:48:35.796Z,57.13
2023-05-06T13:49:38.555Z,57.03
2023-05-06T13:50:46.082Z,56.98
2023-05-06T13:51:48.960Z,57.20
2023-05-06T13:52:51.477Z,57.41
2023-05-06T13:53:54.240Z,57.73